createdAt,value
2018-08-10T00:00:52.686Z,36.00
2018-08-10T00:01:52.439Z,36.00
2018-08-10T00:03:46.296Z,36.00
2018-08-10T00:04:46.147Z,40.00
2018-08-10T00:06:39.687Z,32.00
2018-08-10T00:07:39.496Z,32.00
2018-08-10T00:09:32.496Z,40.00
2018-08-10T00:10:32.837Z,36.00
2018-08-10T00:12:26.491Z,40.00
2018-08-10T00:13:26.148Z,40.00
2018-08-10T00:15:19.535Z,40.00
2018-08-10T00:16:19.517Z,36.00
2018-08-10T00:18:13.089Z,40.00
2018-08-10T00:19:12.866Z,44.00
2018-08-10T00:21:06.181Z,52.00
2018-08-10T00:22:05.843Z,52.00
2018-08-10T00:23:59.772Z,44.00
2018-08-10T00:24:59.545Z,40.00
2018-08-10T00:26:52.538Z,32.00
2018-08-10T00:27:52.519Z,36.00
2018-08-10T00:29:46.455Z,48.00
2018-08-10T00:30:45.864Z,52.00
2018-08-10T00:32:39.545Z,64.00
2018-08-10T00:33:39.561Z,56.00
2018-08-10T00:35:32.773Z,52.00
2018-08-10T00:36:32.520Z,56.00
2018-08-10T00:38:26.487Z,88.00
2018-08-10T00:39:25.862Z,108.00
2018-08-10T00:41:19.799Z,148.00
2018-08-10T00:42:19.557Z,168.00
2018-08-10T00:44:12.946Z,240.00
2018-08-10T00:45:12.547Z,280.00
2018-08-10T00:47:06.131Z,332.00
2018-08-10T00:48:06.271Z,300.00
2018-08-10T00:49:59.841Z,124.00
2018-08-10T00:50:59.240Z,100.00
2018-08-10T00:52:52.855Z,76.00
2018-08-10T00:53:52.581Z,68.00
2018-08-10T00:55:46.307Z,60.00
2018-08-10T00:56:45.937Z,60.00
2018-08-10T00:58:39.560Z,80.00
2018-08-10T00:59:39.610Z,88.00
2018-08-10T01:01:32.513Z,128.00
2018-08-10T01:02:32.119Z,132.00
2018-08-10T01:04:25.692Z,192.00
2018-08-10T01:05:25.450Z,188.00
2018-08-10T01:07:18.829Z,232.00
2018-08-10T01:08:19.189Z,156.00
2018-08-10T01:10:12.395Z,160.00
2018-08-10T01:11:12.170Z,168.00
2018-08-10T01:13:06.492Z,248.00
2018-08-10T01:14:05.873Z,388.00
2018-08-10T01:15:59.114Z,260.00
2018-08-10T01:16:58.831Z,228.00
2018-08-10T01:18:52.527Z,168.00
2018-08-10T01:19:52.515Z,160.00
2018-08-10T01:21:46.339Z,160.00
2018-08-10T01:22:45.858Z,228.00
2018-08-10T01:24:39.207Z,220.00
2018-08-10T01:25:39.232Z,236.00
2018-08-10T01:27:32.424Z,464.00
2018-08-10T01:28:32.628Z,220.00
2018-08-10T01:30:25.553Z,228.00
2018-08-10T01:31:25.880Z,368.00
2018-08-10T01:33:19.152Z,188.00
2018-08-10T01:34:18.878Z,420.00
2018-08-10T01:36:12.238Z,176.00
2018-08-10T01:37:12.603Z,196.00
2018-08-10T01:39:06.738Z,220.00
2018-08-10T01:40:05.903Z,164.00
2018-08-10T01:41:59.256Z,104.00
2018-08-10T01:42:59.242Z,76.00
2018-08-10T01:44:52.529Z,56.00
2018-08-10T01:45:52.247Z,52.00
2018-08-10T01:47:45.599Z,40.00
2018-08-10T01:48:45.594Z,32.00
2018-08-10T01:50:39.126Z,28.00
2018-08-10T01:51:39.270Z,28.00
2018-08-10T01:53:32.309Z,48.00
2018-08-10T01:54:32.270Z,76.00
2018-08-10T01:56:25.894Z,296.00
2018-08-10T01:57:25.639Z,168.00
2018-08-10T01:59:19.074Z,256.00
2018-08-10T02:00:19.301Z,164.00
2018-08-10T02:02:12.916Z,604.00
2018-08-10T02:03:12.292Z,180.00
2018-08-10T02:05:06.027Z,460.00
2018-08-10T02:06:05.977Z,680.00
2018-08-10T02:07:59.211Z,340.00
2018-08-10T02:08:59.318Z,704.00
2018-08-10T02:10:52.941Z,484.00
2018-08-10T02:11:52.662Z,200.00
2018-08-10T02:13:46.316Z,188.00
2018-08-10T02:14:46.032Z,640.00
2018-08-10T02:16:39.491Z,192.00
2018-08-10T02:17:39.380Z,164.00
2018-08-10T02:19:32.941Z,504.00
2018-08-10T02:20:32.365Z,116.00
2018-08-10T02:22:26.081Z,88.00
2018-08-10T02:23:26.031Z,84.00
2018-08-10T02:25:19.277Z,64.00
2018-08-10T02:26:19.043Z,60.00
2018-08-10T02:28:12.749Z,64.00
2018-08-10T02:29:12.748Z,64.00
2018-08-10T02:31:06.329Z,84.00
2018-08-10T02:32:06.057Z,212.00
2018-08-10T02:33:59.074Z,72.00
2018-08-10T02:34:59.067Z,72.00
2018-08-10T02:36:52.607Z,68.00
2018-08-10T02:37:52.403Z,64.00
2018-08-10T02:39:46.130Z,76.00
2018-08-10T02:40:46.080Z,96.00
2018-08-10T02:42:39.678Z,128.00
2018-08-10T02:43:39.468Z,136.00
2018-08-10T02:45:32.450Z,140.00
2018-08-10T02:46:32.783Z,148.00
2018-08-10T02:48:26.973Z,152.00
2018-08-10T02:49:26.148Z,152.00
2018-08-10T02:51:19.101Z,144.00
2018-08-10T02:52:19.109Z,136.00
2018-08-10T02:54:13.104Z,120.00
2018-08-10T02:55:13.071Z,120.00
2018-08-10T02:57:05.797Z,116.00
2018-08-10T02:58:05.782Z,104.00
2018-08-10T02:59:59.694Z,104.00
2018-08-10T03:00:59.470Z,112.00
2018-08-10T03:02:52.472Z,100.00
2018-08-10T03:03:52.839Z,96.00
2018-08-10T03:05:46.423Z,100.00
2018-08-10T03:06:46.191Z,100.00
2018-08-10T03:08:39.153Z,116.00
2018-08-10T03:09:39.165Z,128.00
2018-08-10T03:11:33.314Z,136.00
2018-08-10T03:12:32.841Z,140.00
2018-08-10T03:14:25.842Z,132.00
2018-08-10T03:15:26.177Z,124.00
2018-08-10T03:17:19.995Z,108.00
2018-08-10T03:18:19.176Z,92.00
2018-08-10T03:20:12.868Z,68.00
2018-08-10T03:21:12.515Z,60.00
2018-08-10T03:23:06.426Z,56.00
2018-08-10T03:24:05.873Z,64.00
2018-08-10T03:26:00.171Z,128.00
2018-08-10T03:26:59.214Z,180.00
2018-08-10T03:28:53.161Z,252.00
2018-08-10T03:29:52.542Z,264.00
2018-08-10T03:31:45.925Z,140.00
2018-08-10T03:32:46.260Z,112.00
2018-08-10T03:34:39.787Z,136.00
2018-08-10T03:35:39.605Z,140.00
2018-08-10T03:37:32.954Z,120.00
2018-08-10T03:38:32.575Z,108.00
2018-08-10T03:40:27.071Z,80.00
2018-08-10T03:41:25.913Z,72.00
2018-08-10T03:43:19.264Z,64.00
2018-08-10T03:44:19.636Z,76.00
2018-08-10T03:46:12.836Z,220.00
2018-08-10T03:47:12.602Z,172.00
2018-08-10T03:49:06.300Z,156.00
2018-08-10T03:50:05.969Z,144.00
2018-08-10T03:51:59.505Z,228.00
2018-08-10T03:52:59.653Z,144.00
2018-08-10T03:54:52.654Z,212.00
2018-08-10T03:55:52.961Z,176.00
2018-08-10T03:57:46.529Z,136.00
2018-08-10T03:58:46.304Z,136.00
2018-08-10T04:00:39.692Z,124.00
2018-08-10T04:01:39.302Z,180.00
2018-08-10T04:03:33.289Z,104.00
2018-08-10T04:04:32.988Z,96.00
2018-08-10T04:06:26.020Z,92.00
2018-08-10T04:07:25.989Z,152.00
2018-08-10T04:09:19.900Z,180.00
2018-08-10T04:10:19.318Z,176.00
2018-08-10T04:12:12.696Z,100.00
2018-08-10T04:13:13.041Z,92.00
2018-08-10T04:15:06.310Z,148.00
2018-08-10T04:16:06.366Z,152.00
2018-08-10T04:17:58.894Z,144.00
2018-08-10T04:18:59.219Z,140.00
2018-08-10T04:20:52.517Z,136.00
2018-08-10T04:21:52.563Z,140.00
2018-08-10T04:23:45.945Z,152.00
2018-08-10T04:24:45.576Z,156.00
2018-08-10T04:26:39.147Z,116.00
2018-08-10T04:27:39.280Z,120.00
2018-08-10T04:29:32.619Z,100.00
2018-08-10T04:30:32.584Z,96.00
2018-08-10T04:32:25.909Z,108.00
2018-08-10T04:33:25.960Z,116.00
2018-08-10T04:35:18.929Z,128.00
2018-08-10T04:36:19.280Z,136.00
2018-08-10T04:38:12.503Z,168.00
2018-08-10T04:39:12.616Z,168.00
2018-08-10T04:41:05.644Z,152.00
2018-08-10T04:42:05.614Z,144.00
2018-08-10T04:43:59.167Z,144.00
2018-08-10T04:44:58.956Z,144.00
2018-08-10T04:46:52.296Z,144.00
2018-08-10T04:47:52.294Z,144.00
2018-08-10T04:49:46.226Z,124.00
2018-08-10T04:50:45.625Z,144.00
2018-08-10T04:52:39.364Z,144.00
2018-08-10T04:53:38.988Z,140.00
2018-08-10T04:55:32.976Z,136.00
2018-08-10T04:56:32.331Z,108.00
2018-08-10T04:58:26.642Z,76.00
2018-08-10T04:59:26.040Z,124.00
2018-08-10T05:01:19.668Z,104.00
2018-08-10T05:02:19.016Z,148.00
2018-08-10T05:04:12.378Z,88.00
2018-08-10T05:05:12.376Z,132.00
2018-08-10T05:07:05.968Z,124.00
2018-08-10T05:08:06.031Z,112.00
2018-08-10T05:09:59.118Z,100.00
2018-08-10T05:10:59.042Z,68.00
2018-08-10T05:12:52.672Z,96.00
2018-08-10T05:13:52.717Z,48.00
2018-08-10T05:15:45.765Z,52.00
2018-08-10T05:16:45.728Z,100.00
2018-08-10T05:18:39.715Z,96.00
2018-08-10T05:19:39.074Z,104.00
2018-08-10T05:21:33.365Z,96.00
2018-08-10T05:22:32.410Z,96.00
2018-08-10T05:24:26.357Z,96.00
2018-08-10T05:25:26.083Z,100.00
2018-08-10T05:26:25.766Z,96.00
2018-08-10T05:27:25.732Z,68.00
2018-08-10T05:28:25.739Z,96.00
2018-08-10T05:29:25.737Z,100.00
2018-08-10T05:30:25.709Z,104.00
2018-08-10T05:31:26.081Z,80.00
2018-08-10T05:32:25.709Z,76.00
2018-08-10T05:33:26.063Z,104.00
2018-08-10T05:34:25.682Z,100.00
2018-08-10T05:35:26.047Z,100.00
2018-08-10T05:36:26.014Z,100.00
2018-08-10T05:37:26.038Z,104.00
2018-08-10T05:38:25.665Z,96.00
2018-08-10T05:39:25.990Z,92.00
2018-08-10T05:40:25.656Z,88.00
2018-08-10T05:41:26.020Z,84.00
2018-08-10T05:42:25.649Z,80.00
2018-08-10T05:43:25.638Z,72.00
2018-08-10T05:44:25.965Z,68.00
2018-08-10T05:45:25.994Z,104.00
2018-08-10T05:46:25.651Z,104.00
2018-08-10T05:47:25.968Z,104.00
2018-08-10T05:48:25.971Z,104.00
2018-08-10T05:49:25.966Z,84.00
2018-08-10T05:50:25.926Z,92.00
2018-08-10T05:51:25.946Z,88.00
2018-08-10T05:52:25.962Z,80.00
2018-08-10T05:53:25.933Z,84.00
2018-08-10T05:54:25.576Z,84.00
2018-08-10T05:55:25.931Z,80.00
2018-08-10T05:56:25.915Z,80.00
2018-08-10T05:57:25.893Z,80.00
2018-08-10T05:58:25.907Z,80.00
2018-08-10T05:59:25.901Z,80.00
2018-08-10T06:00:25.510Z,88.00
2018-08-10T06:01:25.521Z,96.00
2018-08-10T06:02:25.880Z,100.00
2018-08-10T06:03:25.677Z,104.00
2018-08-10T06:04:25.862Z,112.00
2018-08-10T06:05:25.469Z,116.00
2018-08-10T06:06:25.474Z,120.00
2018-08-10T06:07:25.486Z,116.00
2018-08-10T06:08:25.464Z,116.00
2018-08-10T06:09:25.471Z,116.00
2018-08-10T06:10:25.792Z,112.00
2018-08-10T06:11:25.785Z,108.00
2018-08-10T06:12:25.812Z,112.00
2018-08-10T06:13:25.442Z,112.00
2018-08-10T06:14:25.804Z,104.00
2018-08-10T06:15:25.773Z,104.00
2018-08-10T06:16:25.792Z,104.00
2018-08-10T06:17:25.406Z,104.00
2018-08-10T06:18:25.770Z,100.00
2018-08-10T06:19:25.794Z,96.00
2018-08-10T06:20:25.773Z,92.00
2018-08-10T06:21:25.394Z,88.00
2018-08-10T06:22:25.755Z,88.00
2018-08-10T06:23:25.735Z,88.00
2018-08-10T06:24:25.373Z,92.00
2018-08-10T06:25:25.362Z,88.00
2018-08-10T06:26:25.695Z,88.00
2018-08-10T06:27:25.340Z,84.00
2018-08-10T06:28:25.706Z,80.00
2018-08-10T06:29:25.672Z,80.00
2018-08-10T06:30:25.659Z,80.00
2018-08-10T06:31:25.302Z,80.00
2018-08-10T06:32:25.331Z,88.00
2018-08-10T06:33:25.652Z,96.00
2018-08-10T06:34:25.308Z,92.00
2018-08-10T06:35:25.667Z,96.00
2018-08-10T06:36:25.321Z,92.00
2018-08-10T06:37:25.283Z,104.00
2018-08-10T06:38:25.618Z,96.00
2018-08-10T06:39:25.631Z,124.00
2018-08-10T06:40:25.254Z,108.00
2018-08-10T06:41:25.622Z,100.00
2018-08-10T06:42:25.246Z,92.00
2018-08-10T06:43:25.266Z,104.00
2018-08-10T06:44:25.618Z,104.00
2018-08-10T06:45:25.565Z,112.00
2018-08-10T06:46:25.228Z,116.00
2018-08-10T06:47:25.220Z,104.00
2018-08-10T06:48:25.551Z,108.00
2018-08-10T06:49:25.541Z,100.00
2018-08-10T06:50:25.192Z,96.00
2018-08-10T06:51:25.203Z,100.00
2018-08-10T06:52:25.211Z,104.00
2018-08-10T06:53:25.542Z,100.00
2018-08-10T06:54:25.166Z,104.00
2018-08-10T06:55:25.159Z,96.00
2018-08-10T06:56:25.156Z,100.00
2018-08-10T06:57:25.518Z,76.00
2018-08-10T06:58:25.517Z,76.00
2018-08-10T06:59:25.508Z,80.00
2018-08-10T07:00:25.190Z,84.00
2018-08-10T07:01:25.190Z,108.00
2018-08-10T07:02:25.101Z,84.00
2018-08-10T07:03:25.449Z,84.00
2018-08-10T07:04:25.109Z,84.00
2018-08-10T07:05:25.436Z,80.00
2018-08-10T07:06:25.078Z,88.00
2018-08-10T07:07:25.489Z,84.00
2018-08-10T07:08:25.071Z,80.00
2018-08-10T07:09:25.443Z,84.00
2018-08-10T07:10:25.063Z,88.00
2018-08-10T07:11:25.068Z,76.00
2018-08-10T07:12:25.425Z,76.00
2018-08-10T07:13:25.553Z,76.00
2018-08-10T07:14:25.049Z,76.00
2018-08-10T07:15:25.034Z,76.00
2018-08-10T07:16:25.029Z,76.00
2018-08-10T07:17:25.387Z,80.00
2018-08-10T07:18:25.385Z,76.00
2018-08-10T07:19:25.384Z,84.00
2018-08-10T07:20:24.997Z,84.00
2018-08-10T07:21:25.000Z,84.00
2018-08-10T07:22:25.367Z,88.00
2018-08-10T07:23:24.999Z,88.00
2018-08-10T07:24:24.979Z,88.00
2018-08-10T07:25:25.314Z,88.00
2018-08-10T07:26:25.327Z,92.00
2018-08-10T07:27:25.296Z,108.00
2018-08-10T07:28:25.325Z,100.00
2018-08-10T07:29:24.981Z,108.00
2018-08-10T07:30:25.323Z,92.00
2018-08-10T07:31:25.316Z,108.00
2018-08-10T07:32:24.921Z,108.00
2018-08-10T07:33:24.934Z,96.00
2018-08-10T07:34:24.921Z,96.00
2018-08-10T07:35:24.897Z,88.00
2018-08-10T07:36:24.905Z,104.00
2018-08-10T07:38:25.229Z,92.00
2018-08-10T07:39:25.210Z,112.00
2018-08-10T07:40:24.872Z,100.00
2018-08-10T07:41:24.876Z,108.00
2018-08-10T07:42:25.198Z,96.00
2018-08-10T07:43:24.866Z,92.00
2018-08-10T07:44:25.234Z,92.00
2018-08-10T07:45:25.181Z,92.00
2018-08-10T07:46:24.850Z,88.00
2018-08-10T07:47:25.164Z,88.00
2018-08-10T07:48:24.822Z,88.00
2018-08-10T07:49:24.811Z,84.00
2018-08-10T07:50:25.189Z,80.00
2018-08-10T07:51:25.138Z,80.00
2018-08-10T07:52:25.132Z,76.00
2018-08-10T07:53:24.769Z,72.00
2018-08-10T07:54:24.777Z,76.00
2018-08-10T07:55:25.142Z,76.00
2018-08-10T07:56:24.784Z,72.00
2018-08-10T07:57:24.755Z,80.00
2018-08-10T07:58:25.130Z,84.00
2018-08-10T07:59:24.752Z,84.00
2018-08-10T08:00:24.752Z,88.00
2018-08-10T08:01:24.730Z,84.00
2018-08-10T08:02:25.102Z,80.00
2018-08-10T08:03:24.723Z,76.00
2018-08-10T08:04:25.090Z,72.00
2018-08-10T08:05:25.069Z,72.00
2018-08-10T08:06:24.686Z,72.00
2018-08-10T08:07:25.035Z,60.00
2018-08-10T08:08:25.066Z,60.00
2018-08-10T08:09:25.026Z,68.00
2018-08-10T08:10:25.087Z,72.00
2018-08-10T08:11:25.040Z,72.00
2018-08-10T08:12:24.663Z,80.00
2018-08-10T08:13:25.024Z,92.00
2018-08-10T08:14:25.030Z,96.00
2018-08-10T08:15:25.013Z,96.00
2018-08-10T08:16:24.666Z,92.00
2018-08-10T08:17:24.971Z,84.00
2018-08-10T08:18:24.623Z,84.00
2018-08-10T08:19:24.661Z,80.00
2018-08-10T08:20:24.619Z,76.00
2018-08-10T08:21:24.970Z,72.00
2018-08-10T08:22:24.599Z,68.00
2018-08-10T08:23:24.930Z,72.00
2018-08-10T08:24:24.964Z,72.00
2018-08-10T08:25:24.950Z,60.00
2018-08-10T08:26:24.581Z,60.00
2018-08-10T08:27:24.595Z,60.00
2018-08-10T08:28:24.934Z,64.00
2018-08-10T08:29:24.934Z,68.00
2018-08-10T08:30:24.882Z,72.00
2018-08-10T08:31:24.915Z,76.00
2018-08-10T08:32:24.872Z,72.00
2018-08-10T08:33:24.515Z,72.00
2018-08-10T08:34:24.505Z,84.00
2018-08-10T08:35:24.525Z,76.00
2018-08-10T08:36:24.492Z,88.00
2018-08-10T08:37:24.868Z,88.00
2018-08-10T08:38:24.859Z,92.00
2018-08-10T08:39:24.486Z,84.00
2018-08-10T08:40:24.469Z,80.00
2018-08-10T08:41:24.473Z,96.00
2018-08-10T08:42:24.808Z,96.00
2018-08-10T08:43:24.461Z,84.00
2018-08-10T08:44:24.824Z,88.00
2018-08-10T08:45:24.510Z,84.00
2018-08-10T08:46:24.686Z,84.00
2018-08-10T08:47:24.781Z,84.00
2018-08-10T08:48:24.800Z,76.00
2018-08-10T08:49:24.411Z,68.00
2018-08-10T08:50:24.432Z,64.00
2018-08-10T08:51:24.789Z,64.00
2018-08-10T08:52:24.736Z,64.00
2018-08-10T08:53:24.382Z,76.00
2018-08-10T08:54:24.730Z,80.00
2018-08-10T08:55:24.411Z,76.00
2018-08-10T08:56:24.372Z,84.00
2018-08-10T08:57:24.718Z,76.00
2018-08-10T08:58:24.729Z,80.00
2018-08-10T08:59:24.726Z,80.00
2018-08-10T09:00:24.734Z,80.00
2018-08-10T09:01:24.739Z,76.00
2018-08-10T09:02:24.715Z,76.00
2018-08-10T09:03:24.670Z,76.00
2018-08-10T09:04:24.323Z,80.00
2018-08-10T09:05:24.338Z,84.00
2018-08-10T09:06:24.678Z,80.00
2018-08-10T09:07:24.688Z,72.00
2018-08-10T09:08:24.307Z,68.00
2018-08-10T09:09:24.304Z,72.00
2018-08-10T09:10:24.293Z,72.00
2018-08-10T09:11:24.651Z,76.00
2018-08-10T09:12:24.640Z,72.00
2018-08-10T09:13:24.276Z,68.00
2018-08-10T09:14:24.301Z,68.00
2018-08-10T09:15:24.594Z,64.00
2018-08-10T09:16:24.237Z,68.00
2018-08-10T09:17:24.600Z,64.00
2018-08-10T09:18:24.557Z,60.00
2018-08-10T09:19:24.552Z,56.00
2018-08-10T09:20:24.238Z,64.00
2018-08-10T09:21:24.224Z,64.00
2018-08-10T09:22:24.206Z,68.00
2018-08-10T09:23:24.307Z,68.00
2018-08-10T09:24:24.201Z,68.00
2018-08-10T09:25:24.516Z,68.00
2018-08-10T09:26:24.264Z,64.00
2018-08-10T09:27:24.500Z,68.00
2018-08-10T09:28:24.513Z,68.00
2018-08-10T09:29:24.177Z,72.00
2018-08-10T09:30:24.146Z,72.00
2018-08-10T09:31:24.479Z,72.00
2018-08-10T09:32:24.468Z,68.00
2018-08-10T09:33:24.147Z,64.00
2018-08-10T09:34:24.139Z,60.00
2018-08-10T09:35:24.466Z,64.00
2018-08-10T09:36:24.460Z,60.00
2018-08-10T09:37:24.438Z,56.00
2018-08-10T09:38:24.473Z,52.00
2018-08-10T09:39:24.096Z,48.00
2018-08-10T09:40:24.090Z,44.00
2018-08-10T09:41:24.426Z,40.00
2018-08-10T09:42:24.061Z,40.00
2018-08-10T09:43:24.397Z,40.00
2018-08-10T09:44:24.394Z,40.00
2018-08-10T09:45:24.118Z,40.00
2018-08-10T09:46:24.388Z,40.00
2018-08-10T09:47:24.382Z,40.00
2018-08-10T09:48:24.355Z,40.00
2018-08-10T09:49:24.374Z,40.00
2018-08-10T09:50:24.359Z,44.00
2018-08-10T09:51:24.029Z,40.00
2018-08-10T09:52:24.030Z,40.00
2018-08-10T09:53:24.337Z,40.00
2018-08-10T09:54:23.999Z,40.00
2018-08-10T09:55:24.032Z,40.00
2018-08-10T09:56:23.988Z,36.00
2018-08-10T09:57:23.981Z,40.00
2018-08-10T09:58:23.982Z,40.00
2018-08-10T09:59:23.974Z,40.00
2018-08-10T10:00:24.276Z,40.00
2018-08-10T10:01:24.294Z,40.00
2018-08-10T10:02:24.279Z,40.00
2018-08-10T10:03:23.941Z,44.00
2018-08-10T10:04:24.257Z,40.00
2018-08-10T10:05:23.941Z,40.00
2018-08-10T10:06:23.922Z,40.00
2018-08-10T10:07:24.261Z,40.00
2018-08-10T10:08:24.234Z,36.00
2018-08-10T10:09:24.229Z,40.00
2018-08-10T10:10:24.222Z,40.00
2018-08-10T10:11:24.212Z,40.00
2018-08-10T10:12:23.900Z,32.00
2018-08-10T10:13:24.198Z,36.00
2018-08-10T10:14:24.193Z,32.00
2018-08-10T10:15:24.207Z,36.00
2018-08-10T10:16:24.199Z,28.00
2018-08-10T10:17:24.226Z,36.00
2018-08-10T10:18:24.185Z,28.00
2018-08-10T10:19:23.835Z,32.00
2018-08-10T10:20:23.842Z,32.00
2018-08-10T10:21:23.822Z,32.00
2018-08-10T10:22:23.825Z,28.00
2018-08-10T10:23:23.811Z,24.00
2018-08-10T10:24:24.145Z,24.00
2018-08-10T10:25:24.141Z,28.00
2018-08-10T10:26:24.122Z,32.00
2018-08-10T10:27:24.108Z,28.00
2018-08-10T10:28:23.775Z,24.00
2018-08-10T10:29:23.777Z,28.00
2018-08-10T10:30:23.766Z,24.00
2018-08-10T10:31:23.757Z,24.00
2018-08-10T10:32:23.770Z,32.00
2018-08-10T10:33:23.723Z,36.00
2018-08-10T10:34:24.078Z,36.00
2018-08-10T10:35:24.098Z,32.00
2018-08-10T10:36:23.734Z,32.00
2018-08-10T10:37:23.703Z,36.00
2018-08-10T10:38:24.036Z,32.00
2018-08-10T10:39:24.047Z,32.00
2018-08-10T10:40:23.694Z,32.00
2018-08-10T10:41:23.727Z,24.00
2018-08-10T10:42:23.685Z,24.00
2018-08-10T10:43:24.019Z,32.00
2018-08-10T10:44:23.674Z,28.00
2018-08-10T10:45:23.669Z,24.00
2018-08-10T10:46:24.000Z,28.00
2018-08-10T10:47:23.639Z,28.00
2018-08-10T10:48:23.653Z,28.00
2018-08-10T10:49:23.648Z,24.00
2018-08-10T10:50:23.639Z,24.00
2018-08-10T10:51:23.971Z,28.00
2018-08-10T10:52:23.960Z,28.00
2018-08-10T10:53:23.623Z,28.00
2018-08-10T10:54:23.928Z,32.00
2018-08-10T10:55:23.932Z,36.00
2018-08-10T10:56:23.609Z,32.00
2018-08-10T10:57:23.934Z,36.00
2018-08-10T10:58:23.588Z,36.00
2018-08-10T10:59:23.581Z,32.00
2018-08-10T11:00:23.588Z,36.00
2018-08-10T11:01:23.565Z,36.00
2018-08-10T11:02:23.544Z,36.00
2018-08-10T11:03:23.890Z,40.00
2018-08-10T11:04:23.859Z,40.00
2018-08-10T11:05:23.531Z,40.00
2018-08-10T11:06:23.920Z,40.00
2018-08-10T11:07:23.871Z,36.00
2018-08-10T11:08:23.524Z,36.00
2018-08-10T11:09:23.515Z,36.00
2018-08-10T11:10:23.524Z,36.00
2018-08-10T11:11:23.844Z,36.00
2018-08-10T11:12:23.499Z,36.00
2018-08-10T11:13:23.477Z,36.00
2018-08-10T11:14:23.502Z,36.00
2018-08-10T11:15:23.797Z,32.00
2018-08-10T11:16:23.804Z,32.00
2018-08-10T11:17:23.472Z,32.00
2018-08-10T11:18:23.774Z,28.00
2018-08-10T11:19:23.430Z,28.00
2018-08-10T11:20:23.446Z,24.00
2018-08-10T11:21:23.777Z,24.00
2018-08-10T11:22:23.422Z,24.00
2018-08-10T11:23:23.438Z,24.00
2018-08-10T11:24:23.734Z,24.00
2018-08-10T11:25:23.505Z,24.00
2018-08-10T11:26:23.401Z,20.00
2018-08-10T11:27:23.724Z,20.00
2018-08-10T11:28:23.415Z,20.00
2018-08-10T11:29:23.697Z,16.00
2018-08-10T11:30:23.816Z,20.00
2018-08-10T11:31:23.691Z,16.00
2018-08-10T11:32:23.681Z,20.00
2018-08-10T11:33:31.319Z,16.00
2018-08-10T11:35:16.928Z,16.00
2018-08-10T11:36:17.036Z,16.00
2018-08-10T11:38:10.984Z,16.00
2018-08-10T11:39:10.021Z,12.00
2018-08-10T11:41:03.516Z,16.00
2018-08-10T11:42:03.237Z,16.00
2018-08-10T11:43:56.231Z,12.00
2018-08-10T11:44:56.263Z,12.00
2018-08-10T11:46:50.153Z,12.00
2018-08-10T11:47:49.579Z,12.00
2018-08-10T11:49:42.936Z,8.00
2018-08-10T11:50:43.267Z,12.00
2018-08-10T11:52:49.468Z,12.00
2018-08-10T11:53:36.260Z,8.00
2018-08-10T11:55:29.614Z,8.00
2018-08-10T11:56:29.931Z,8.00
2018-08-10T11:58:23.511Z,8.00
2018-08-10T11:59:23.281Z,4.00
2018-08-10T12:01:16.886Z,4.00
2018-08-10T12:02:16.633Z,4.00
2018-08-10T12:04:10.192Z,8.00
2018-08-10T12:05:09.973Z,4.00
2018-08-10T12:07:03.322Z,4.00
2018-08-10T12:08:03.321Z,4.00
2018-08-10T12:09:56.859Z,4.00
2018-08-10T12:10:56.310Z,4.00
2018-08-10T12:12:50.008Z,0.00
2018-08-10T12:13:49.992Z,0.00
2018-08-10T12:15:44.189Z,0.00
2018-08-10T12:16:43.335Z,4.00
2018-08-10T12:18:36.681Z,4.00
2018-08-10T12:19:36.339Z,0.00
2018-08-10T12:21:30.251Z,0.00
2018-08-10T12:22:29.689Z,0.00
2018-08-10T12:24:23.035Z,0.00
2018-08-10T12:25:23.344Z,0.00
2018-08-10T12:27:16.967Z,0.00
2018-08-10T12:28:16.694Z,0.00
2018-08-10T12:30:10.082Z,0.00
2018-08-10T12:31:10.024Z,0.00
2018-08-10T12:33:04.257Z,0.00
2018-08-10T12:34:03.057Z,0.00
2018-08-10T12:35:56.979Z,0.00
2018-08-10T12:36:56.391Z,0.00
2018-08-10T12:38:50.299Z,0.00
2018-08-10T12:39:49.736Z,0.00
2018-08-10T12:41:43.508Z,0.00
2018-08-10T12:42:43.406Z,0.00
2018-08-10T12:44:36.649Z,0.00
2018-08-10T12:45:36.755Z,0.00
2018-08-10T12:47:30.099Z,0.00
2018-08-10T12:48:30.086Z,0.00
2018-08-10T12:50:23.956Z,0.00
2018-08-10T12:51:23.081Z,0.00
2018-08-10T12:53:16.764Z,0.00
2018-08-10T12:54:16.426Z,0.00
2018-08-10T12:56:09.894Z,0.00
2018-08-10T12:57:09.699Z,0.00
2018-08-10T12:59:02.653Z,0.00
2018-08-10T13:00:02.645Z,0.00
2018-08-10T13:01:56.532Z,0.00
2018-08-10T13:02:55.980Z,0.00
2018-08-10T13:04:49.321Z,0.00
2018-08-10T13:05:49.311Z,0.00
2018-08-10T13:07:43.206Z,0.00
2018-08-10T13:08:43.007Z,0.00
2018-08-10T13:10:36.384Z,0.00
2018-08-10T13:11:36.002Z,0.00
2018-08-10T13:13:29.964Z,0.00
2018-08-10T13:14:29.664Z,0.00
2018-08-10T13:16:23.279Z,0.00
2018-08-10T13:17:22.691Z,0.00
2018-08-10T13:19:16.564Z,0.00
2018-08-10T13:20:16.366Z,0.00
2018-08-10T13:22:09.390Z,0.00
2018-08-10T13:23:09.370Z,0.00
2018-08-10T13:25:02.905Z,0.00
2018-08-10T13:26:02.709Z,0.00
2018-08-10T13:27:56.972Z,0.00
2018-08-10T13:28:56.386Z,0.00
2018-08-10T13:30:49.959Z,0.00
2018-08-10T13:31:49.398Z,0.00
2018-08-10T13:33:43.155Z,0.00
2018-08-10T13:34:43.051Z,0.00
2018-08-10T13:36:36.336Z,0.00
2018-08-10T13:37:36.073Z,0.00
2018-08-10T13:39:29.759Z,0.00
2018-08-10T13:40:29.386Z,0.00
2018-08-10T13:42:23.301Z,0.00
2018-08-10T13:43:22.760Z,0.00
2018-08-10T13:45:16.423Z,0.00
2018-08-10T13:46:16.097Z,0.00
2018-08-10T13:48:09.968Z,0.00
2018-08-10T13:49:09.787Z,0.00
2018-08-10T13:51:02.780Z,0.00
2018-08-10T13:52:03.104Z,0.00
2018-08-10T13:53:57.279Z,0.00
2018-08-10T13:54:56.440Z,0.00
2018-08-10T13:56:49.887Z,0.00
2018-08-10T13:57:49.784Z,0.00
2018-08-10T13:59:43.374Z,0.00
2018-08-10T14:00:42.798Z,0.00
2018-08-10T14:02:36.157Z,0.00
2018-08-10T14:03:36.465Z,0.00
2018-08-10T14:05:30.619Z,0.00
2018-08-10T14:06:29.547Z,0.00
2018-08-10T14:08:23.154Z,0.00
2018-08-10T14:09:22.836Z,0.00
2018-08-10T14:11:16.471Z,0.00
2018-08-10T14:12:16.012Z,0.00
2018-08-10T14:14:09.349Z,0.00
2018-08-10T14:15:09.364Z,0.00
2018-08-10T14:17:02.912Z,0.00
2018-08-10T14:18:02.362Z,0.00
2018-08-10T14:19:56.317Z,0.00
2018-08-10T14:20:56.055Z,0.00
2018-08-10T14:21:56.023Z,0.00
2018-08-10T14:22:56.041Z,0.00
2018-08-10T14:23:55.700Z,0.00
2018-08-10T14:24:55.685Z,0.00
2018-08-10T14:25:55.677Z,0.00
2018-08-10T14:26:56.219Z,0.00
2018-08-10T14:27:55.683Z,0.00
2018-08-10T14:28:56.003Z,0.00
2018-08-10T14:29:55.637Z,0.00
2018-08-10T14:30:55.963Z,0.00
2018-08-10T14:31:55.632Z,0.00
2018-08-10T14:32:55.976Z,0.00
2018-08-10T14:33:55.938Z,0.00
2018-08-10T14:34:55.960Z,0.00
2018-08-10T14:35:55.925Z,0.00
2018-08-10T14:36:55.618Z,0.00
2018-08-10T14:37:55.936Z,0.00
2018-08-10T14:38:55.597Z,0.00
2018-08-10T14:39:55.587Z,0.00
2018-08-10T14:40:55.906Z,0.00
2018-08-10T14:41:55.576Z,0.00
2018-08-10T14:42:55.888Z,0.00
2018-08-10T14:43:55.540Z,0.00
2018-08-10T14:44:55.560Z,0.00
2018-08-10T14:45:55.867Z,0.00
2018-08-10T14:46:55.601Z,0.00
2018-08-10T14:47:55.557Z,0.00
2018-08-10T14:48:55.878Z,0.00
2018-08-10T14:49:55.862Z,0.00
2018-08-10T14:50:55.837Z,0.00
2018-08-10T14:51:55.526Z,0.00
2018-08-10T14:52:55.840Z,0.00
2018-08-10T14:53:55.837Z,0.00
2018-08-10T14:54:55.828Z,0.00
2018-08-10T14:55:55.808Z,0.00
2018-08-10T14:56:55.798Z,0.00
2018-08-10T14:57:55.805Z,0.00
2018-08-10T14:58:55.807Z,0.00
2018-08-10T14:59:55.460Z,0.00
2018-08-10T15:00:55.462Z,0.00
2018-08-10T15:01:55.447Z,0.00
2018-08-10T15:02:55.438Z,0.00
2018-08-10T15:03:55.441Z,0.00
2018-08-10T15:04:55.749Z,0.00
2018-08-10T15:05:55.753Z,0.00
2018-08-10T15:06:55.732Z,0.00
2018-08-10T15:07:55.737Z,0.00
2018-08-10T15:08:55.741Z,0.00
2018-08-10T15:09:55.709Z,0.00
2018-08-10T15:10:55.718Z,0.00
2018-08-10T15:11:55.761Z,0.00
2018-08-10T15:12:55.968Z,0.00
2018-08-10T15:13:55.357Z,0.00
2018-08-10T15:14:55.683Z,0.00
2018-08-10T15:15:55.364Z,0.00
2018-08-10T15:16:55.664Z,0.00
2018-08-10T15:17:55.657Z,0.00
2018-08-10T15:18:55.320Z,0.00
2018-08-10T15:19:55.329Z,0.00
2018-08-10T15:20:55.637Z,0.00
2018-08-10T15:21:55.320Z,0.00
2018-08-10T15:22:55.621Z,0.00
2018-08-10T15:23:55.623Z,0.00